createdAt,value
2023-05-04T00:00:02.682Z,1.07
2023-05-04T00:02:30.361Z,1.33
2023-05-04T00:04:57.850Z,0.90
2023-05-04T00:07:25.764Z,1.30
2023-05-04T00:09:53.247Z,1.20
2023-05-04T00:12:20.736Z,1.40
2023-05-04T00:14:48.078Z,1.43
2023-05-04T00:17:15.404Z,1.27
2023-05-04T00:19:44.126Z,1.23
2023-05-04T00:22:11.564Z,1.30
2023-05-04T00:24:39.090Z,1.40
2023-05-04T00:27:06.409Z,1.13
2023-05-04T00:29:33.851Z,1.27
2023-05-04T00:32:01.703Z,1.30
2023-05-04T00:34:29.848Z,1.60
2023-05-04T00:36:57.417Z,1.50
2023-05-04T00:39:24.643Z,1.43
2023-05-04T00:41:51.929Z,1.10
2023-05-04T00:44:20.531Z,1.30
2023-05-04T00:46:48.005Z,0.90
2023-05-04T00:49:15.495Z,1.27
2023-05-04T00:51:43.112Z,0.97
2023-05-04T00:54:10.526Z,1.00
2023-05-04T00:56:42.330Z,0.93
2023-05-04T00:59:09.982Z,1.00
2023-05-04T01:01:37.557Z,1.20
2023-05-04T01:04:05.727Z,1.13
2023-05-04T01:06:40.126Z,1.30
2023-05-04T01:09:11.837Z,1.30
2023-05-04T01:11:45.095Z,1.20
2023-05-04T01:14:15.100Z,1.20
2023-05-04T01:16:42.599Z,1.20
2023-05-04T01:19:10.169Z,1.07
2023-05-04T01:21:39.050Z,1.40
2023-05-04T01:24:07.297Z,1.47
2023-05-04T01:26:39.247Z,1.17
2023-05-04T01:29:09.814Z,1.30
2023-05-04T01:31:37.895Z,0.90
2023-05-04T01:34:06.137Z,1.17
2023-05-04T01:36:33.813Z,1.17
2023-05-04T01:39:01.339Z,1.30
2023-05-04T01:41:30.295Z,1.00
2023-05-04T01:43:58.618Z,1.20
2023-05-04T01:46:26.065Z,0.87
2023-05-04T01:48:53.405Z,1.20
2023-05-04T01:51:20.942Z,1.20
2023-05-04T01:53:48.571Z,0.90
2023-05-04T01:56:15.930Z,1.23
2023-05-04T01:58:43.327Z,1.20
2023-05-04T02:01:10.754Z,1.20
2023-05-04T02:03:38.255Z,1.20
2023-05-04T02:06:06.325Z,1.10
2023-05-04T02:08:33.725Z,1.20
2023-05-04T02:11:01.047Z,1.20
2023-05-04T02:13:28.368Z,1.10
2023-05-04T02:15:55.771Z,1.10
2023-05-04T02:18:23.106Z,1.03
2023-05-04T02:20:50.593Z,1.20
2023-05-04T02:23:17.921Z,1.23
2023-05-04T02:25:45.441Z,0.90
2023-05-04T02:28:12.852Z,1.13
2023-05-04T02:30:40.278Z,1.10
2023-05-04T02:33:08.189Z,1.27
2023-05-04T02:35:35.901Z,1.03
2023-05-04T02:38:03.285Z,0.97
2023-05-04T02:40:30.685Z,1.20
2023-05-04T02:42:58.210Z,1.10
2023-05-04T02:45:25.513Z,1.10
2023-05-04T02:47:53.010Z,1.20
2023-05-04T02:50:20.851Z,0.90
2023-05-04T02:52:48.476Z,0.93
2023-05-04T02:55:15.889Z,1.60
2023-05-04T02:57:43.236Z,1.23
2023-05-04T03:00:10.936Z,1.10
2023-05-04T03:02:38.284Z,1.20
2023-05-04T03:05:05.833Z,1.10
2023-05-04T03:07:33.248Z,1.00
2023-05-04T03:10:00.582Z,0.90
2023-05-04T03:12:27.912Z,0.90
2023-05-04T03:14:55.308Z,1.03
2023-05-04T03:17:22.736Z,1.13
2023-05-04T03:19:50.122Z,1.00
2023-05-04T03:22:17.571Z,0.93
2023-05-04T03:24:45.304Z,1.03
2023-05-04T03:27:12.697Z,1.23
2023-05-04T03:29:40.388Z,1.30
2023-05-04T03:32:07.958Z,0.97
2023-05-04T03:34:35.801Z,1.13
2023-05-04T03:37:03.210Z,1.17
2023-05-04T03:39:30.548Z,1.70
2023-05-04T03:41:57.895Z,1.33
2023-05-04T03:44:25.348Z,0.90
2023-05-04T03:46:52.770Z,1.20
2023-05-04T03:49:20.092Z,1.20
2023-05-04T03:51:47.561Z,0.90
2023-05-04T03:54:14.980Z,1.07
2023-05-04T03:56:42.476Z,0.97
2023-05-04T03:59:10.011Z,1.03
2023-05-04T04:01:37.493Z,1.20
2023-05-04T04:04:05.150Z,1.10
2023-05-04T04:06:32.607Z,1.20
2023-05-04T04:08:59.938Z,1.10
2023-05-04T04:11:27.407Z,1.03
2023-05-04T04:13:54.893Z,1.43
2023-05-04T04:16:22.375Z,1.20
2023-05-04T04:18:52.851Z,1.20
2023-05-04T04:21:20.609Z,1.00
2023-05-04T04:23:47.956Z,1.43
2023-05-04T04:26:15.895Z,1.10
2023-05-04T04:28:44.980Z,1.20
2023-05-04T04:31:12.654Z,1.20
2023-05-04T04:33:40.138Z,1.00
2023-05-04T04:36:08.251Z,0.97
2023-05-04T04:38:35.763Z,1.20
2023-05-04T04:41:03.435Z,0.97
2023-05-04T04:43:31.166Z,1.00
2023-05-04T04:45:58.773Z,1.20
2023-05-04T04:48:26.221Z,1.00
2023-05-04T04:50:53.925Z,1.07
2023-05-04T04:53:21.370Z,1.30
2023-05-04T04:55:48.807Z,1.30
2023-05-04T04:58:17.251Z,1.07
2023-05-04T05:00:45.520Z,1.20
2023-05-04T05:03:13.442Z,1.30
2023-05-04T05:05:41.095Z,1.40
2023-05-04T05:08:08.444Z,1.20
2023-05-04T05:10:36.169Z,1.10
2023-05-04T05:13:03.938Z,1.50
2023-05-04T05:15:31.446Z,1.20
2023-05-04T05:17:58.960Z,0.87
2023-05-04T05:20:26.488Z,1.13
2023-05-04T05:22:53.893Z,1.10
2023-05-04T05:25:21.293Z,1.23
2023-05-04T05:27:48.616Z,1.43
2023-05-04T05:30:16.046Z,1.03
2023-05-04T05:32:43.515Z,1.17
2023-05-04T05:35:12.571Z,1.23
2023-05-04T05:37:39.893Z,1.27
2023-05-04T05:40:10.734Z,1.00
2023-05-04T05:42:38.089Z,1.40
2023-05-04T05:45:05.819Z,1.80
2023-05-04T05:47:33.177Z,1.30
2023-05-04T05:50:00.690Z,1.17
2023-05-04T05:52:28.046Z,1.27
2023-05-04T05:54:55.445Z,1.20
2023-05-04T05:57:22.931Z,1.37
2023-05-04T05:59:50.562Z,1.50
2023-05-04T06:02:18.267Z,1.20
2023-05-04T06:04:45.860Z,1.77
2023-05-04T06:07:16.612Z,1.43
2023-05-04T06:09:44.211Z,1.10
2023-05-04T06:12:13.648Z,1.63
2023-05-04T06:14:40.984Z,1.27
2023-05-04T06:17:08.651Z,1.10
2023-05-04T06:19:36.431Z,1.40
2023-05-04T06:22:04.450Z,1.33
2023-05-04T06:24:32.198Z,1.40
2023-05-04T06:26:59.588Z,1.43
2023-05-04T06:29:27.094Z,1.60
2023-05-04T06:31:54.543Z,1.70
2023-05-04T06:34:21.980Z,1.70
2023-05-04T06:36:49.408Z,1.40
2023-05-04T06:39:16.764Z,1.40
2023-05-04T06:41:44.241Z,1.43
2023-05-04T06:44:11.809Z,1.30
2023-05-04T06:46:39.127Z,1.20
2023-05-04T06:49:06.574Z,1.30
2023-05-04T06:51:37.545Z,1.00
2023-05-04T06:54:05.065Z,1.33
2023-05-04T06:56:32.969Z,1.60
2023-05-04T06:59:00.450Z,1.73
2023-05-04T07:01:28.032Z,1.73
2023-05-04T07:03:58.425Z,1.37
2023-05-04T07:06:27.372Z,1.30
2023-05-04T07:08:54.764Z,1.20
2023-05-04T07:11:22.335Z,1.70
2023-05-04T07:13:50.042Z,1.20
2023-05-04T07:16:17.531Z,1.20
2023-05-04T07:18:45.256Z,1.17
2023-05-04T07:21:26.944Z,1.30
2023-05-04T07:23:55.692Z,1.47
2023-05-04T07:26:23.512Z,1.40
2023-05-04T07:28:51.006Z,1.40
2023-05-04T07:31:18.399Z,1.40
2023-05-04T07:33:46.007Z,1.10
2023-05-04T07:36:13.579Z,1.23
2023-05-04T07:38:41.650Z,1.60
2023-05-04T07:41:09.061Z,1.10
2023-05-04T07:43:36.440Z,1.20
2023-05-04T07:46:03.825Z,1.30
2023-05-04T07:48:31.447Z,1.03
2023-05-04T07:50:59.133Z,1.40
2023-05-04T07:53:27.124Z,1.17
2023-05-04T07:55:54.478Z,1.20
2023-05-04T07:58:21.792Z,1.20
2023-05-04T08:00:49.206Z,1.23
2023-05-04T08:03:16.922Z,1.10
2023-05-04T08:05:44.364Z,1.20
2023-05-04T08:08:11.814Z,1.13
2023-05-04T08:10:40.910Z,1.37
2023-05-04T08:13:08.377Z,1.10
2023-05-04T08:15:35.893Z,1.20
2023-05-04T08:18:03.358Z,1.10
2023-05-04T08:20:30.801Z,1.37
2023-05-04T08:22:58.385Z,1.00
2023-05-04T08:25:25.850Z,1.20
2023-05-04T08:27:53.929Z,0.93
2023-05-04T08:30:21.342Z,1.10
2023-05-04T08:32:51.391Z,0.97
2023-05-04T08:35:18.816Z,1.20
2023-05-04T08:37:46.242Z,1.10
2023-05-04T08:40:13.970Z,0.90
2023-05-04T08:42:41.373Z,0.93
2023-05-04T08:45:10.531Z,0.90
2023-05-04T08:47:38.185Z,1.07
2023-05-04T08:50:07.999Z,0.97
2023-05-04T08:52:36.212Z,1.00
2023-05-04T08:55:05.994Z,1.10
2023-05-04T08:57:34.255Z,1.10
2023-05-04T09:00:02.129Z,0.90
2023-05-04T09:02:30.306Z,1.20
2023-05-04T09:04:58.045Z,1.20
2023-05-04T09:07:25.573Z,0.93
2023-05-04T09:09:53.327Z,1.25
2023-05-04T09:12:20.898Z,1.30
2023-05-04T09:14:48.345Z,1.55
2023-05-04T09:17:18.115Z,1.05
2023-05-04T09:19:45.972Z,1.05
2023-05-04T09:22:17.416Z,1.17
2023-05-04T09:24:45.769Z,1.40
2023-05-04T09:27:13.907Z,1.30
2023-05-04T09:29:42.606Z,0.80
2023-05-04T09:32:14.424Z,1.02
2023-05-04T09:34:48.661Z,1.05
2023-05-04T09:37:16.254Z,1.40
2023-05-04T09:39:57.089Z,0.90
2023-05-04T09:42:24.906Z,0.95
2023-05-04T09:45:02.449Z,1.00
2023-05-04T09:47:40.464Z,1.00
2023-05-04T09:50:20.761Z,1.10
2023-05-04T09:52:49.414Z,1.33
2023-05-04T09:55:18.690Z,1.00
2023-05-04T09:57:46.730Z,1.10
2023-05-04T10:00:16.260Z,1.10
2023-05-04T10:02:47.549Z,1.05
2023-05-04T10:05:21.472Z,1.10
2023-05-04T10:07:48.971Z,1.10
2023-05-04T10:10:16.808Z,1.05
2023-05-04T10:12:45.455Z,1.17
2023-05-04T10:15:13.573Z,1.10
2023-05-04T10:17:41.425Z,1.00
2023-05-04T10:20:17.720Z,0.95
2023-05-04T10:23:03.779Z,0.88
2023-05-04T10:25:43.086Z,1.05
2023-05-04T10:28:13.483Z,1.08
2023-05-04T10:30:41.088Z,0.90
2023-05-04T10:33:08.864Z,1.05
2023-05-04T10:35:37.969Z,1.02
2023-05-04T10:38:06.588Z,1.20
2023-05-04T10:40:40.781Z,0.80
2023-05-04T10:43:08.766Z,1.10
2023-05-04T10:45:37.837Z,0.90
2023-05-04T10:48:05.595Z,1.10
2023-05-04T10:50:46.022Z,1.02
2023-05-04T10:53:14.207Z,1.10
2023-05-04T10:55:45.483Z,0.98
2023-05-04T10:58:19.255Z,0.90
2023-05-04T11:00:48.578Z,1.02
2023-05-04T11:03:16.197Z,1.08
2023-05-04T11:05:54.864Z,0.88
2023-05-04T11:08:26.680Z,1.00
2023-05-04T11:11:04.785Z,1.00
2023-05-04T11:13:34.996Z,1.15
2023-05-04T11:16:02.987Z,1.27
2023-05-04T11:18:31.671Z,1.13
2023-05-04T11:20:59.642Z,0.93
2023-05-04T11:23:28.351Z,0.90
2023-05-04T11:25:55.845Z,0.80
2023-05-04T11:28:33.682Z,0.85
2023-05-04T11:31:13.927Z,0.93
2023-05-04T11:33:48.252Z,0.90
2023-05-04T11:36:16.044Z,0.88
2023-05-04T11:38:44.016Z,0.70
2023-05-04T11:41:12.671Z,0.60
2023-05-04T11:43:42.251Z,0.82
2023-05-04T11:46:10.526Z,0.90
2023-05-04T11:48:39.725Z,0.45
2023-05-04T11:51:07.201Z,0.57
2023-05-04T11:53:42.061Z,0.70
2023-05-04T11:56:09.916Z,0.80
2023-05-04T11:58:37.762Z,0.80
2023-05-04T12:01:06.124Z,0.93
2023-05-04T12:06:05.768Z,1.23
2023-05-04T12:08:35.089Z,0.80
2023-05-04T12:11:25.583Z,0.80
2023-05-04T12:14:04.118Z,0.80
2023-05-04T12:16:31.674Z,0.75
2023-05-04T12:19:11.422Z,0.85
2023-05-04T12:21:49.822Z,0.90
2023-05-04T12:24:17.338Z,1.00
2023-05-04T12:26:44.765Z,1.05
2023-05-04T12:29:12.202Z,1.00
2023-05-04T12:31:39.658Z,1.30
2023-05-04T12:34:07.459Z,1.00
2023-05-04T12:36:35.443Z,1.00
2023-05-04T12:39:05.654Z,0.85
2023-05-04T12:41:33.752Z,0.70
2023-05-04T12:44:01.563Z,0.82
2023-05-04T12:46:29.062Z,0.90
2023-05-04T12:48:56.717Z,0.93
2023-05-04T12:51:24.013Z,0.90
2023-05-04T12:53:51.502Z,0.88
2023-05-04T12:56:18.840Z,0.90
2023-05-04T12:58:46.242Z,0.95
2023-05-04T13:01:13.693Z,0.82
2023-05-04T13:03:41.467Z,0.70
2023-05-04T13:06:09.186Z,1.17
2023-05-04T13:08:36.609Z,0.80
2023-05-04T13:11:06.767Z,0.90
2023-05-04T13:13:37.362Z,0.90
2023-05-04T13:16:06.054Z,0.73
2023-05-04T13:18:33.772Z,0.70
2023-05-04T13:21:01.283Z,1.05
2023-05-04T13:23:28.700Z,1.00
2023-05-04T13:25:55.973Z,0.80
2023-05-04T13:28:23.693Z,0.90
2023-05-04T13:30:51.207Z,0.90
2023-05-04T13:33:28.899Z,0.88
2023-05-04T13:35:58.626Z,1.00
2023-05-04T13:38:27.247Z,0.85
2023-05-04T13:40:57.525Z,0.80
2023-05-04T13:43:25.289Z,0.90
2023-05-04T13:45:52.657Z,0.77
2023-05-04T13:48:20.095Z,1.20
2023-05-04T13:50:47.496Z,0.90
2023-05-04T13:53:14.895Z,0.82
2023-05-04T13:55:42.210Z,0.80
2023-05-04T13:58:09.967Z,0.90
2023-05-04T14:00:38.311Z,0.90
2023-05-04T14:03:07.304Z,0.80
2023-05-04T14:05:35.814Z,0.93
2023-05-04T14:08:03.528Z,1.00
2023-05-04T14:10:30.900Z,0.80
2023-05-04T14:12:58.410Z,0.80
2023-05-04T14:15:27.689Z,0.73
2023-05-04T14:17:55.402Z,0.70
2023-05-04T14:20:23.008Z,0.77
2023-05-04T14:22:50.444Z,0.60
2023-05-04T14:25:17.883Z,0.73
2023-05-04T14:27:45.576Z,0.90
2023-05-04T14:30:13.326Z,0.80
2023-05-04T14:32:41.833Z,0.80
2023-05-04T14:35:10.951Z,0.93
2023-05-04T14:37:39.486Z,0.73
2023-05-04T14:40:08.202Z,0.80
2023-05-04T14:42:36.120Z,0.70
2023-05-04T14:45:03.722Z,0.80
2023-05-04T14:47:31.131Z,0.75
2023-05-04T14:49:58.675Z,0.68
2023-05-04T14:52:26.922Z,0.75
2023-05-04T14:54:54.489Z,0.80
2023-05-04T14:57:21.851Z,0.65
2023-05-04T14:59:49.226Z,1.05
2023-05-04T15:02:18.924Z,0.43
2023-05-04T15:04:47.225Z,0.55
2023-05-04T15:07:16.285Z,0.57
2023-05-04T15:09:43.691Z,0.60
2023-05-04T15:12:11.166Z,0.80
2023-05-04T15:14:38.764Z,0.50
2023-05-04T15:17:07.434Z,0.80
2023-05-04T15:19:38.127Z,0.70
2023-05-04T15:22:05.844Z,0.60
2023-05-04T15:24:33.530Z,0.65
2023-05-04T15:27:02.221Z,0.50
2023-05-04T15:29:29.767Z,0.70
2023-05-04T15:31:57.314Z,1.00
2023-05-04T15:34:24.768Z,0.52
2023-05-04T15:36:52.764Z,0.70
2023-05-04T15:39:20.163Z,0.70
2023-05-04T15:41:47.647Z,0.80
2023-05-04T15:44:15.449Z,1.08
2023-05-04T15:46:43.383Z,0.80
2023-05-04T15:49:11.004Z,0.70
2023-05-04T15:51:38.566Z,1.27
2023-05-04T15:54:06.090Z,1.00
2023-05-04T15:56:33.669Z,1.00
2023-05-04T15:59:01.319Z,0.90
2023-05-04T16:01:28.812Z,0.93
2023-05-04T16:03:56.728Z,1.00
2023-05-04T16:06:24.208Z,1.20
2023-05-04T16:08:54.438Z,1.00
2023-05-04T16:11:21.886Z,0.98
2023-05-04T16:13:49.328Z,1.13
2023-05-04T16:16:16.662Z,1.10
2023-05-04T16:18:44.136Z,1.25
2023-05-04T16:21:14.245Z,0.90
2023-05-04T16:23:41.723Z,1.25
2023-05-04T16:26:09.088Z,0.90
2023-05-04T16:28:36.907Z,0.80
2023-05-04T16:31:11.906Z,0.85
2023-05-04T16:33:41.474Z,0.80
2023-05-04T16:36:09.169Z,1.05
2023-05-04T16:38:36.684Z,1.30
2023-05-04T16:41:04.096Z,0.82
2023-05-04T16:43:32.174Z,0.93
2023-05-04T16:45:59.653Z,1.00
2023-05-04T16:48:27.014Z,0.88
2023-05-04T16:50:54.361Z,0.93
2023-05-04T16:53:22.154Z,1.00
2023-05-04T16:55:50.984Z,1.25
2023-05-04T16:58:18.449Z,0.80
2023-05-04T17:00:45.922Z,0.80
2023-05-04T17:03:13.762Z,1.17
2023-05-04T17:05:41.656Z,0.73
2023-05-04T17:08:09.131Z,0.90
2023-05-04T17:10:36.452Z,0.90
2023-05-04T17:13:03.870Z,0.85
2023-05-04T17:15:31.243Z,0.98
2023-05-04T17:17:58.725Z,0.82
2023-05-04T17:20:30.527Z,0.90
2023-05-04T17:22:58.815Z,0.90
2023-05-04T17:25:27.091Z,0.80
2023-05-04T17:27:54.931Z,0.80
2023-05-04T17:30:22.449Z,0.90
2023-05-04T17:32:50.091Z,1.15
2023-05-04T17:35:25.328Z,0.75
2023-05-04T17:37:58.715Z,1.10
2023-05-04T17:40:27.993Z,1.13
2023-05-04T17:42:56.129Z,0.95
2023-05-04T17:45:23.535Z,0.70
2023-05-04T17:47:51.451Z,0.70
2023-05-04T17:50:18.936Z,1.00
2023-05-04T17:52:46.368Z,0.93
2023-05-04T17:55:13.731Z,0.90
2023-05-04T17:57:41.128Z,0.85
2023-05-04T18:00:09.249Z,0.90
2023-05-04T18:02:37.025Z,0.82
2023-05-04T18:05:04.763Z,0.70
2023-05-04T18:07:32.085Z,0.90
2023-05-04T18:09:59.542Z,0.80
2023-05-04T18:12:27.009Z,0.77
2023-05-04T18:14:54.408Z,0.95
2023-05-04T18:17:21.889Z,0.90
2023-05-04T18:19:49.250Z,0.85
2023-05-04T18:22:18.012Z,1.13
2023-05-04T18:24:49.245Z,1.02
2023-05-04T18:27:16.848Z,0.90
2023-05-04T18:29:44.445Z,1.10
2023-05-04T18:32:11.803Z,1.00
2023-05-04T18:34:39.329Z,1.02
2023-05-04T18:37:07.153Z,1.30
2023-05-04T18:39:34.620Z,1.23
2023-05-04T18:42:02.071Z,1.02
2023-05-04T18:44:29.451Z,1.02
2023-05-04T18:46:56.898Z,1.38
2023-05-04T18:49:24.243Z,1.20
2023-05-04T18:51:51.606Z,1.10
2023-05-04T18:54:19.131Z,0.90
2023-05-04T18:56:46.563Z,1.00
2023-05-04T18:59:14.024Z,1.52
2023-05-04T19:01:41.651Z,1.00
2023-05-04T19:04:09.341Z,1.00
2023-05-04T19:06:36.725Z,1.17
2023-05-04T19:09:04.271Z,0.90
2023-05-04T19:11:31.728Z,1.00
2023-05-04T19:13:59.291Z,1.00
2023-05-04T19:16:29.408Z,1.20
2023-05-04T19:18:57.406Z,1.30
2023-05-04T19:21:24.926Z,1.15
2023-05-04T19:23:52.331Z,1.13
2023-05-04T19:26:19.691Z,1.15
2023-05-04T19:28:47.086Z,1.20
2023-05-04T19:31:17.621Z,1.30
2023-05-04T19:33:48.320Z,1.23
2023-05-04T19:36:17.322Z,1.25
2023-05-04T19:38:44.865Z,0.85
2023-05-04T19:41:13.886Z,0.90
2023-05-04T19:43:41.658Z,1.45
2023-05-04T19:46:09.373Z,1.83
2023-05-04T19:48:36.724Z,1.23
2023-05-04T19:51:05.022Z,1.33
2023-05-04T19:53:32.563Z,1.40
2023-05-04T19:56:00.053Z,1.65
2023-05-04T19:58:28.537Z,1.10
2023-05-04T20:00:56.267Z,1.60
2023-05-04T20:03:24.074Z,1.17
2023-05-04T20:05:52.088Z,1.50
2023-05-04T20:08:19.604Z,1.23
2023-05-04T20:10:47.169Z,1.10
2023-05-04T20:13:15.110Z,0.90
2023-05-04T20:15:42.882Z,1.20
2023-05-04T20:18:10.244Z,1.25
2023-05-04T20:20:37.641Z,1.30
2023-05-04T20:23:04.960Z,1.73
2023-05-04T20:25:32.679Z,0.95
2023-05-04T20:28:00.056Z,1.02
2023-05-04T20:30:28.970Z,1.10
2023-05-04T20:32:56.696Z,1.45
2023-05-04T20:35:24.125Z,1.25
2023-05-04T20:37:51.632Z,1.27
2023-05-04T20:40:19.001Z,1.45
2023-05-04T20:42:46.480Z,1.25
2023-05-04T20:45:14.090Z,1.30
2023-05-04T20:47:41.484Z,1.50
2023-05-04T20:50:10.514Z,1.08
2023-05-04T20:52:38.612Z,1.27
2023-05-04T20:55:07.814Z,1.38
2023-05-04T20:57:35.560Z,1.30
2023-05-04T21:00:03.721Z,2.27
2023-05-04T21:02:31.296Z,1.40
2023-05-04T21:04:58.769Z,1.63
2023-05-04T21:07:26.438Z,1.50
2023-05-04T21:10:00.646Z,1.10
2023-05-04T21:12:28.128Z,1.30
2023-05-04T21:14:55.609Z,1.40
2023-05-04T21:17:25.680Z,1.20
2023-05-04T21:19:53.242Z,1.53
2023-05-04T21:22:20.567Z,1.40
2023-05-04T21:24:48.126Z,1.50
2023-05-04T21:27:18.682Z,1.40
2023-05-04T21:29:46.166Z,1.37
2023-05-04T21:32:13.643Z,1.63
2023-05-04T21:34:41.058Z,1.60
2023-05-04T21:37:08.448Z,1.20
2023-05-04T21:39:36.223Z,1.43
2023-05-04T21:42:03.724Z,1.27
2023-05-04T21:44:31.125Z,1.33
2023-05-04T21:46:58.552Z,1.40
2023-05-04T21:49:30.129Z,1.50
2023-05-04T21:51:57.528Z,1.20
2023-05-04T21:54:26.006Z,1.53
2023-05-04T21:56:54.282Z,1.50
2023-05-04T21:59:21.731Z,1.63
2023-05-04T22:01:49.099Z,1.47
2023-05-04T22:04:16.769Z,1.47
2023-05-04T22:06:44.922Z,1.37
2023-05-04T22:09:14.225Z,1.10
2023-05-04T22:11:41.774Z,1.53
2023-05-04T22:14:09.273Z,1.50
2023-05-04T22:16:36.896Z,1.40
2023-05-04T22:19:04.919Z,1.60
2023-05-04T22:21:32.948Z,1.30
2023-05-04T22:24:00.927Z,1.30
2023-05-04T22:26:28.522Z,1.43
2023-05-04T22:28:56.204Z,1.50
2023-05-04T22:31:23.632Z,1.50
2023-05-04T22:33:51.136Z,1.30
2023-05-04T22:36:18.442Z,1.40
2023-05-04T22:38:45.851Z,1.37
2023-05-04T22:41:16.282Z,1.40
2023-05-04T22:43:43.790Z,1.53
2023-05-04T22:46:20.323Z,1.47
2023-05-04T22:48:48.368Z,1.40
2023-05-04T22:51:18.125Z,1.80
2023-05-04T22:53:45.576Z,1.30
2023-05-04T22:56:13.255Z,1.67
2023-05-04T22:58:41.095Z,1.47
2023-05-04T23:01:12.008Z,1.60
2023-05-04T23:03:39.999Z,1.50
2023-05-04T23:06:08.860Z,1.60
2023-05-04T23:08:36.569Z,1.67
2023-05-04T23:11:04.123Z,1.67
2023-05-04T23:13:31.528Z,1.40
2023-05-04T23:15:59.145Z,1.50
2023-05-04T23:18:26.893Z,1.93
2023-05-04T23:20:54.372Z,1.20
2023-05-04T23:23:21.882Z,1.70
2023-05-04T23:25:49.215Z,1.57
2023-05-04T23:28:16.762Z,1.43
2023-05-04T23:30:44.203Z,1.43
2023-05-04T23:33:11.564Z,1.83
2023-05-04T23:35:38.966Z,1.47
2023-05-04T23:38:06.333Z,1.67
2023-05-04T23:40:33.767Z,1.50
2023-05-04T23:43:01.213Z,2.13
2023-05-04T23:45:28.722Z,1.70
2023-05-04T23:47:56.158Z,1.50
2023-05-04T23:50:23.455Z,1.80
2023-05-04T23:52:50.886Z,1.60
2023-05-04T23:55:21.968Z,1.70
2023-05-04T23:57:49.569Z,1.50
